sensor_id;sensor_type;location;lat;lon;timestamp;P1;durP1;ratioP1;P2;durP2;ratioP2
8113;SDS011;4099;52.684;9.918;2022-11-28T00:01:56;12.87;;;9.20;;
8113;SDS011;4099;52.684;9.918;2022-11-28T00:07:01;10.50;;;8.70;;
8113;SDS011;4099;52.684;9.918;2022-11-28T00:12:08;12.73;;;8.70;;
8113;SDS011;4099;52.684;9.918;2022-11-28T00:17:11;13.63;;;9.00;;
8113;SDS011;4099;52.684;9.918;2022-11-28T00:22:15;11.43;;;8.07;;
8113;SDS011;4099;52.684;9.918;2022-11-28T00:27:20;12.30;;;8.43;;
8113;SDS011;4099;52.684;9.918;2022-11-28T00:32:27;15.23;;;8.57;;
8113;SDS011;4099;52.684;9.918;2022-11-28T00:37:45;15.87;;;9.10;;
8113;SDS011;4099;52.684;9.918;2022-11-28T00:42:48;11.83;;;8.47;;
8113;SDS011;4099;52.684;9.918;2022-11-28T00:47:53;11.73;;;8.03;;
8113;SDS011;4099;52.684;9.918;2022-11-28T00:52:58;12.00;;;8.47;;
8113;SDS011;4099;52.684;9.918;2022-11-28T00:58:01;11.50;;;7.77;;
8113;SDS011;4099;52.684;9.918;2022-11-28T01:03:10;12.63;;;7.90;;
8113;SDS011;4099;52.684;9.918;2022-11-28T01:08:14;10.87;;;7.80;;
8113;SDS011;4099;52.684;9.918;2022-11-28T01:13:21;13.20;;;7.93;;
8113;SDS011;4099;52.684;9.918;2022-11-28T01:18:28;11.17;;;7.90;;
8113;SDS011;4099;52.684;9.918;2022-11-28T01:23:33;12.83;;;7.73;;
8113;SDS011;4099;52.684;9.918;2022-11-28T01:28:39;11.30;;;7.67;;
8113;SDS011;4099;52.684;9.918;2022-11-28T01:33:42;11.90;;;8.13;;
8113;SDS011;4099;52.684;9.918;2022-11-28T01:38:49;14.13;;;8.03;;
8113;SDS011;4099;52.684;9.918;2022-11-28T01:43:59;12.10;;;7.30;;
8113;SDS011;4099;52.684;9.918;2022-11-28T01:49:13;14.03;;;8.87;;
8113;SDS011;4099;52.684;9.918;2022-11-28T01:54:25;15.63;;;10.50;;
8113;SDS011;4099;52.684;9.918;2022-11-28T01:59:33;10.57;;;7.60;;
8113;SDS011;4099;52.684;9.918;2022-11-28T02:04:40;10.47;;;7.37;;
8113;SDS011;4099;52.684;9.918;2022-11-28T02:09:50;11.63;;;7.13;;
8113;SDS011;4099;52.684;9.918;2022-11-28T02:26:34;10.70;;;7.57;;
8113;SDS011;4099;52.684;9.918;2022-11-28T02:32:04;11.07;;;7.63;;
8113;SDS011;4099;52.684;9.918;2022-11-28T02:37:18;10.90;;;7.73;;
8113;SDS011;4099;52.684;9.918;2022-11-28T02:42:35;12.80;;;8.67;;
8113;SDS011;4099;52.684;9.918;2022-11-28T02:47:46;10.27;;;7.60;;
8113;SDS011;4099;52.684;9.918;2022-11-28T02:52:54;12.23;;;7.83;;
8113;SDS011;4099;52.684;9.918;2022-11-28T02:58:03;11.27;;;7.80;;
8113;SDS011;4099;52.684;9.918;2022-11-28T03:08:47;11.47;;;8.13;;
8113;SDS011;4099;52.684;9.918;2022-11-28T03:14:03;17.17;;;10.63;;
8113;SDS011;4099;52.684;9.918;2022-11-28T03:19:17;11.00;;;6.63;;
8113;SDS011;4099;52.684;9.918;2022-11-28T03:24:30;8.00;;;6.80;;
8113;SDS011;4099;52.684;9.918;2022-11-28T03:29:38;7.70;;;6.37;;
8113;SDS011;4099;52.684;9.918;2022-11-28T03:34:50;10.50;;;6.83;;
8113;SDS011;4099;52.684;9.918;2022-11-28T03:39:58;9.67;;;6.83;;
8113;SDS011;4099;52.684;9.918;2022-11-28T03:45:09;10.00;;;7.10;;
8113;SDS011;4099;52.684;9.918;2022-11-28T03:50:16;8.70;;;6.30;;
8113;SDS011;4099;52.684;9.918;2022-11-28T03:55:26;8.63;;;6.10;;
8113;SDS011;4099;52.684;9.918;2022-11-28T04:00:34;8.63;;;6.37;;
8113;SDS011;4099;52.684;9.918;2022-11-28T04:05:42;9.77;;;6.67;;
8113;SDS011;4099;52.684;9.918;2022-11-28T04:10:51;8.37;;;5.77;;
8113;SDS011;4099;52.684;9.918;2022-11-28T04:16:06;7.27;;;5.50;;
8113;SDS011;4099;52.684;9.918;2022-11-28T04:21:21;7.27;;;5.50;;
8113;SDS011;4099;52.684;9.918;2022-11-28T04:26:28;6.63;;;5.33;;
8113;SDS011;4099;52.684;9.918;2022-11-28T04:31:36;8.43;;;5.80;;
8113;SDS011;4099;52.684;9.918;2022-11-28T04:36:49;8.80;;;5.43;;
8113;SDS011;4099;52.684;9.918;2022-11-28T04:42:00;6.40;;;5.13;;
8113;SDS011;4099;52.684;9.918;2022-11-28T04:47:12;8.80;;;6.40;;
8113;SDS011;4099;52.684;9.918;2022-11-28T04:52:19;9.33;;;6.00;;
8113;SDS011;4099;52.684;9.918;2022-11-28T04:57:33;7.90;;;5.80;;
8113;SDS011;4099;52.684;9.918;2022-11-28T05:02:40;6.77;;;5.60;;
8113;SDS011;4099;52.684;9.918;2022-11-28T05:07:50;8.57;;;5.30;;
8113;SDS011;4099;52.684;9.918;2022-11-28T05:12:55;6.27;;;4.83;;
8113;SDS011;4099;52.684;9.918;2022-11-28T05:17:58;6.33;;;5.50;;
8113;SDS011;4099;52.684;9.918;2022-11-28T05:23:06;8.27;;;6.03;;
8113;SDS011;4099;52.684;9.918;2022-11-28T05:28:09;8.27;;;6.40;;
8113;SDS011;4099;52.684;9.918;2022-11-28T05:33:16;7.87;;;6.27;;
8113;SDS011;4099;52.684;9.918;2022-11-28T05:38:20;10.50;;;6.60;;
8113;SDS011;4099;52.684;9.918;2022-11-28T05:43:25;12.33;;;7.10;;
8113;SDS011;4099;52.684;9.918;2022-11-28T05:48:30;9.63;;;7.00;;
8113;SDS011;4099;52.684;9.918;2022-11-28T05:53:38;8.23;;;6.10;;
8113;SDS011;4099;52.684;9.918;2022-11-28T05:58:41;10.07;;;7.03;;
8113;SDS011;4099;52.684;9.918;2022-11-28T06:03:49;9.50;;;7.50;;
8113;SDS011;4099;52.684;9.918;2022-11-28T06:09:00;11.50;;;7.30;;
8113;SDS011;4099;52.684;9.918;2022-11-28T06:14:08;10.13;;;6.67;;
8113;SDS011;4099;52.684;9.918;2022-11-28T06:19:11;9.33;;;6.47;;
8113;SDS011;4099;52.684;9.918;2022-11-28T06:24:15;11.93;;;7.93;;
8113;SDS011;4099;52.684;9.918;2022-11-28T06:29:24;9.67;;;7.00;;
8113;SDS011;4099;52.684;9.918;2022-11-28T06:34:27;10.03;;;7.60;;
8113;SDS011;4099;52.684;9.918;2022-11-28T06:39:33;11.73;;;7.90;;
8113;SDS011;4099;52.684;9.918;2022-11-28T06:44:36;11.53;;;8.70;;
8113;SDS011;4099;52.684;9.918;2022-11-28T06:49:44;13.27;;;8.87;;
8113;SDS011;4099;52.684;9.918;2022-11-28T06:55:07;11.47;;;8.70;;
8113;SDS011;4099;52.684;9.918;2022-11-28T07:00:10;12.37;;;8.53;;
8113;SDS011;4099;52.684;9.918;2022-11-28T07:05:23;10.17;;;7.83;;
8113;SDS011;4099;52.684;9.918;2022-11-28T07:10:40;11.50;;;8.70;;
8113;SDS011;4099;52.684;9.918;2022-11-28T07:15:58;13.90;;;9.27;;
8113;SDS011;4099;52.684;9.918;2022-11-28T07:21:30;17.67;;;10.30;;
8113;SDS011;4099;52.684;9.918;2022-11-28T07:32:01;14.77;;;9.73;;
8113;SDS011;4099;52.684;9.918;2022-11-28T07:37:22;12.87;;;8.77;;
8113;SDS011;4099;52.684;9.918;2022-11-28T07:42:40;10.40;;;8.13;;
8113;SDS011;4099;52.684;9.918;2022-11-28T07:47:48;10.80;;;8.57;;
8113;SDS011;4099;52.684;9.918;2022-11-28T07:53:01;11.27;;;8.67;;
8113;SDS011;4099;52.684;9.918;2022-11-28T07:58:17;14.30;;;9.20;;
8113;SDS011;4099;52.684;9.918;2022-11-28T08:03:28;13.20;;;8.93;;
8113;SDS011;4099;52.684;9.918;2022-11-28T08:08:40;10.20;;;8.33;;
8113;SDS011;4099;52.684;9.918;2022-11-28T08:13:59;14.57;;;8.57;;
8113;SDS011;4099;52.684;9.918;2022-11-28T08:19:13;12.33;;;8.63;;
8113;SDS011;4099;52.684;9.918;2022-11-28T08:24:32;12.47;;;8.80;;
8113;SDS011;4099;52.684;9.918;2022-11-28T08:29:53;11.77;;;8.23;;
8113;SDS011;4099;52.684;9.918;2022-11-28T08:35:04;11.30;;;8.10;;
8113;SDS011;4099;52.684;9.918;2022-11-28T08:40:11;12.47;;;8.93;;
8113;SDS011;4099;52.684;9.918;2022-11-28T08:45:24;11.13;;;8.00;;
8113;SDS011;4099;52.684;9.918;2022-11-28T08:50:46;11.63;;;8.13;;
8113;SDS011;4099;52.684;9.918;2022-11-28T08:55:57;13.83;;;8.90;;
8113;SDS011;4099;52.684;9.918;2022-11-28T09:06:29;12.30;;;8.60;;
8113;SDS011;4099;52.684;9.918;2022-11-28T09:11:48;15.37;;;12.07;;
8113;SDS011;4099;52.684;9.918;2022-11-28T09:16:57;11.33;;;8.90;;
8113;SDS011;4099;52.684;9.918;2022-11-28T09:22:12;13.47;;;9.70;;
8113;SDS011;4099;52.684;9.918;2022-11-28T09:27:17;10.93;;;8.17;;
8113;SDS011;4099;52.684;9.918;2022-11-28T09:32:30;11.57;;;8.43;;
8113;SDS011;4099;52.684;9.918;2022-11-28T09:39:00;9.57;;;7.80;;
8113;SDS011;4099;52.684;9.918;2022-11-28T09:43:22;11.07;;;8.07;;
8113;SDS011;4099;52.684;9.918;2022-11-28T09:48:43;10.93;;;8.40;;
8113;SDS011;4099;52.684;9.918;2022-11-28T09:54:14;13.77;;;9.87;;
8113;SDS011;4099;52.684;9.918;2022-11-28T09:59:26;13.83;;;9.33;;
8113;SDS011;4099;52.684;9.918;2022-11-28T10:04:39;12.33;;;7.87;;
8113;SDS011;4099;52.684;9.918;2022-11-28T10:09:54;10.93;;;8.07;;
8113;SDS011;4099;52.684;9.918;2022-11-28T10:15:08;10.80;;;8.30;;
8113;SDS011;4099;52.684;9.918;2022-11-28T10:20:31;12.03;;;9.27;;
8113;SDS011;4099;52.684;9.918;2022-11-28T10:25:39;14.20;;;9.77;;
8113;SDS011;4099;52.684;9.918;2022-11-28T10:30:50;15.53;;;10.83;;
8113;SDS011;4099;52.684;9.918;2022-11-28T10:36:11;12.43;;;9.37;;
8113;SDS011;4099;52.684;9.918;2022-11-28T10:41:35;11.50;;;9.17;;
8113;SDS011;4099;52.684;9.918;2022-11-28T10:46:46;13.47;;;9.70;;
8113;SDS011;4099;52.684;9.918;2022-11-28T10:52:06;13.70;;;9.50;;
8113;SDS011;4099;52.684;9.918;2022-11-28T10:57:25;12.47;;;9.10;;
8113;SDS011;4099;52.684;9.918;2022-11-28T11:02:42;12.47;;;9.10;;
8113;SDS011;4099;52.684;9.918;2022-11-28T11:07:52;11.30;;;8.90;;
8113;SDS011;4099;52.684;9.918;2022-11-28T11:12:58;11.77;;;9.70;;
8113;SDS011;4099;52.684;9.918;2022-11-28T11:18:26;14.73;;;11.50;;
8113;SDS011;4099;52.684;9.918;2022-11-28T11:23:49;12.20;;;9.80;;
8113;SDS011;4099;52.684;9.918;2022-11-28T11:29:20;12.67;;;9.57;;
8113;SDS011;4099;52.684;9.918;2022-11-28T11:34:29;12.30;;;9.50;;
8113;SDS011;4099;52.684;9.918;2022-11-28T11:39:46;16.50;;;11.57;;
8113;SDS011;4099;52.684;9.918;2022-11-28T11:50:32;17.40;;;11.00;;
8113;SDS011;4099;52.684;9.918;2022-11-28T11:55:45;17.27;;;11.10;;
8113;SDS011;4099;52.684;9.918;2022-11-28T12:01:08;13.07;;;9.47;;
8113;SDS011;4099;52.684;9.918;2022-11-28T12:06:19;12.90;;;9.47;;
8113;SDS011;4099;52.684;9.918;2022-11-28T12:11:35;12.87;;;9.27;;
8113;SDS011;4099;52.684;9.918;2022-11-28T12:16:54;12.90;;;9.10;;
8113;SDS011;4099;52.684;9.918;2022-11-28T12:27:46;12.40;;;9.07;;
8113;SDS011;4099;52.684;9.918;2022-11-28T12:33:25;12.33;;;9.33;;
8113;SDS011;4099;52.684;9.918;2022-11-28T12:38:54;11.10;;;8.70;;
8113;SDS011;4099;52.684;9.918;2022-11-28T12:44:34;14.07;;;9.30;;
8113;SDS011;4099;52.684;9.918;2022-11-28T12:49:54;11.87;;;8.80;;
8113;SDS011;4099;52.684;9.918;2022-11-28T12:55:24;12.90;;;9.13;;
8113;SDS011;4099;52.684;9.918;2022-11-28T13:00:43;12.63;;;8.93;;
8113;SDS011;4099;52.684;9.918;2022-11-28T13:06:06;11.67;;;8.93;;
8113;SDS011;4099;52.684;9.918;2022-11-28T13:11:39;11.70;;;8.60;;
8113;SDS011;4099;52.684;9.918;2022-11-28T13:17:20;13.90;;;8.77;;
8113;SDS011;4099;52.684;9.918;2022-11-28T13:22:46;13.47;;;9.93;;
8113;SDS011;4099;52.684;9.918;2022-11-28T13:28:23;12.77;;;9.40;;
8113;SDS011;4099;52.684;9.918;2022-11-28T13:33:42;11.67;;;9.43;;
8113;SDS011;4099;52.684;9.918;2022-11-28T13:38:55;14.93;;;9.33;;
8113;SDS011;4099;52.684;9.918;2022-11-28T13:44:14;12.83;;;9.23;;
8113;SDS011;4099;52.684;9.918;2022-11-28T13:49:38;14.20;;;9.73;;
8113;SDS011;4099;52.684;9.918;2022-11-28T13:54:50;14.47;;;10.17;;
8113;SDS011;4099;52.684;9.918;2022-11-28T14:00:12;13.20;;;9.83;;
8113;SDS011;4099;52.684;9.918;2022-11-28T14:05:42;13.63;;;10.50;;
8113;SDS011;4099;52.684;9.918;2022-11-28T14:10:59;14.17;;;10.10;;
8113;SDS011;4099;52.684;9.918;2022-11-28T14:16:17;16.50;;;11.27;;
8113;SDS011;4099;52.684;9.918;2022-11-28T14:27:16;13.83;;;11.07;;
8113;SDS011;4099;52.684;9.918;2022-11-28T14:32:33;14.00;;;9.80;;
8113;SDS011;4099;52.684;9.918;2022-11-28T14:37:49;13.90;;;9.90;;
8113;SDS011;4099;52.684;9.918;2022-11-28T14:43:25;13.57;;;10.60;;
8113;SDS011;4099;52.684;9.918;2022-11-28T14:48:43;18.17;;;10.93;;
8113;SDS011;4099;52.684;9.918;2022-11-28T14:54:36;16.43;;;11.30;;
8113;SDS011;4099;52.684;9.918;2022-11-28T14:59:54;15.50;;;9.90;;
8113;SDS011;4099;52.684;9.918;2022-11-28T15:05:12;15.83;;;11.57;;
8113;SDS011;4099;52.684;9.918;2022-11-28T15:10:59;15.87;;;11.37;;
8113;SDS011;4099;52.684;9.918;2022-11-28T15:16:43;15.43;;;11.40;;
8113;SDS011;4099;52.684;9.918;2022-11-28T15:22:02;15.77;;;11.73;;
8113;SDS011;4099;52.684;9.918;2022-11-28T15:27:23;16.83;;;12.60;;
8113;SDS011;4099;52.684;9.918;2022-11-28T15:32:33;16.07;;;11.43;;
8113;SDS011;4099;52.684;9.918;2022-11-28T15:37:48;18.20;;;11.10;;
8113;SDS011;4099;52.684;9.918;2022-11-28T15:42:58;17.93;;;13.60;;
8113;SDS011;4099;52.684;9.918;2022-11-28T15:48:20;17.60;;;13.03;;
8113;SDS011;4099;52.684;9.918;2022-11-28T15:53:33;17.90;;;13.70;;
8113;SDS011;4099;52.684;9.918;2022-11-28T15:58:43;20.43;;;14.77;;
8113;SDS011;4099;52.684;9.918;2022-11-28T16:03:50;22.63;;;15.50;;
8113;SDS011;4099;52.684;9.918;2022-11-28T16:09:04;21.53;;;14.10;;
8113;SDS011;4099;52.684;9.918;2022-11-28T16:14:14;23.03;;;17.17;;
8113;SDS011;4099;52.684;9.918;2022-11-28T16:19:22;20.43;;;12.83;;
8113;SDS011;4099;52.684;9.918;2022-11-28T16:24:26;20.37;;;13.63;;
8113;SDS011;4099;52.684;9.918;2022-11-28T16:29:42;18.13;;;12.27;;
8113;SDS011;4099;52.684;9.918;2022-11-28T16:34:51;19.10;;;13.03;;
8113;SDS011;4099;52.684;9.918;2022-11-28T16:40:02;21.90;;;13.17;;
8113;SDS011;4099;52.684;9.918;2022-11-28T16:45:14;18.37;;;13.00;;
8113;SDS011;4099;52.684;9.918;2022-11-28T16:50:58;18.10;;;13.37;;
8113;SDS011;4099;52.684;9.918;2022-11-28T16:56:40;18.57;;;13.67;;
8113;SDS011;4099;52.684;9.918;2022-11-28T17:01:52;14.83;;;11.40;;
8113;SDS011;4099;52.684;9.918;2022-11-28T17:07:04;20.03;;;14.07;;
8113;SDS011;4099;52.684;9.918;2022-11-28T17:12:15;18.33;;;12.47;;
8113;SDS011;4099;52.684;9.918;2022-11-28T17:17:34;15.87;;;11.53;;
8113;SDS011;4099;52.684;9.918;2022-11-28T17:22:38;17.30;;;13.27;;
8113;SDS011;4099;52.684;9.918;2022-11-28T17:27:51;18.67;;;12.57;;
8113;SDS011;4099;52.684;9.918;2022-11-28T17:32:59;16.13;;;11.70;;
8113;SDS011;4099;52.684;9.918;2022-11-28T17:38:04;17.87;;;12.13;;
8113;SDS011;4099;52.684;9.918;2022-11-28T17:43:21;19.93;;;14.37;;
8113;SDS011;4099;52.684;9.918;2022-11-28T17:48:42;17.73;;;12.07;;
8113;SDS011;4099;52.684;9.918;2022-11-28T17:53:48;20.57;;;13.50;;
8113;SDS011;4099;52.684;9.918;2022-11-28T17:59:08;18.70;;;13.67;;
8113;SDS011;4099;52.684;9.918;2022-11-28T18:04:24;18.97;;;12.20;;
8113;SDS011;4099;52.684;9.918;2022-11-28T18:09:27;19.37;;;11.90;;
8113;SDS011;4099;52.684;9.918;2022-11-28T18:14:34;17.20;;;12.80;;
8113;SDS011;4099;52.684;9.918;2022-11-28T18:19:46;19.00;;;12.37;;
8113;SDS011;4099;52.684;9.918;2022-11-28T18:24:59;20.23;;;14.33;;
8113;SDS011;4099;52.684;9.918;2022-11-28T18:30:11;29.87;;;17.80;;
8113;SDS011;4099;52.684;9.918;2022-11-28T18:35:19;41.37;;;24.60;;
8113;SDS011;4099;52.684;9.918;2022-11-28T18:40:23;27.07;;;17.40;;
8113;SDS011;4099;52.684;9.918;2022-11-28T18:45:30;23.17;;;15.87;;
8113;SDS011;4099;52.684;9.918;2022-11-28T18:50:40;23.13;;;14.57;;
8113;SDS011;4099;52.684;9.918;2022-11-28T18:55:49;20.47;;;13.53;;
8113;SDS011;4099;52.684;9.918;2022-11-28T19:01:09;20.43;;;13.50;;
8113;SDS011;4099;52.684;9.918;2022-11-28T19:06:31;21.50;;;13.17;;
8113;SDS011;4099;52.684;9.918;2022-11-28T19:11:36;33.97;;;22.17;;
8113;SDS011;4099;52.684;9.918;2022-11-28T19:16:42;25.03;;;15.83;;
8113;SDS011;4099;52.684;9.918;2022-11-28T19:21:52;22.60;;;14.83;;
8113;SDS011;4099;52.684;9.918;2022-11-28T19:27:01;21.57;;;14.60;;
8113;SDS011;4099;52.684;9.918;2022-11-28T19:32:07;24.30;;;15.13;;
8113;SDS011;4099;52.684;9.918;2022-11-28T19:37:14;24.47;;;16.17;;
8113;SDS011;4099;52.684;9.918;2022-11-28T19:42:22;20.60;;;14.87;;
8113;SDS011;4099;52.684;9.918;2022-11-28T19:47:26;26.23;;;16.30;;
8113;SDS011;4099;52.684;9.918;2022-11-28T19:52:49;22.23;;;15.57;;
8113;SDS011;4099;52.684;9.918;2022-11-28T19:57:52;22.20;;;15.57;;
8113;SDS011;4099;52.684;9.918;2022-11-28T20:03:00;28.63;;;15.80;;
8113;SDS011;4099;52.684;9.918;2022-11-28T20:08:15;23.50;;;15.60;;
8113;SDS011;4099;52.684;9.918;2022-11-28T20:13:34;22.90;;;15.43;;
8113;SDS011;4099;52.684;9.918;2022-11-28T20:18:41;25.37;;;15.90;;
8113;SDS011;4099;52.684;9.918;2022-11-28T20:23:51;18.93;;;13.97;;
8113;SDS011;4099;52.684;9.918;2022-11-28T20:28:55;22.60;;;14.27;;
8113;SDS011;4099;52.684;9.918;2022-11-28T20:34:05;18.67;;;13.40;;
8113;SDS011;4099;52.684;9.918;2022-11-28T20:39:13;21.50;;;13.77;;
8113;SDS011;4099;52.684;9.918;2022-11-28T20:44:17;21.27;;;14.17;;
8113;SDS011;4099;52.684;9.918;2022-11-28T20:49:20;22.83;;;15.10;;
8113;SDS011;4099;52.684;9.918;2022-11-28T20:54:27;22.77;;;14.27;;
8113;SDS011;4099;52.684;9.918;2022-11-28T20:59:31;27.00;;;16.03;;
8113;SDS011;4099;52.684;9.918;2022-11-28T21:04:37;25.40;;;15.70;;
8113;SDS011;4099;52.684;9.918;2022-11-28T21:09:47;24.73;;;15.10;;
8113;SDS011;4099;52.684;9.918;2022-11-28T21:14:59;23.13;;;14.80;;
8113;SDS011;4099;52.684;9.918;2022-11-28T21:20:15;20.10;;;14.13;;
8113;SDS011;4099;52.684;9.918;2022-11-28T21:25:35;20.80;;;14.27;;
8113;SDS011;4099;52.684;9.918;2022-11-28T21:30:43;21.73;;;13.47;;
8113;SDS011;4099;52.684;9.918;2022-11-28T21:35:50;19.10;;;13.73;;
8113;SDS011;4099;52.684;9.918;2022-11-28T21:40:57;20.93;;;14.40;;
8113;SDS011;4099;52.684;9.918;2022-11-28T21:46:08;22.93;;;15.43;;
8113;SDS011;4099;52.684;9.918;2022-11-28T21:51:23;19.90;;;13.10;;
8113;SDS011;4099;52.684;9.918;2022-11-28T21:56:32;17.97;;;13.37;;
8113;SDS011;4099;52.684;9.918;2022-11-28T22:01:43;18.70;;;13.30;;
8113;SDS011;4099;52.684;9.918;2022-11-28T22:06:53;20.13;;;14.77;;
8113;SDS011;4099;52.684;9.918;2022-11-28T22:12:11;22.40;;;14.37;;
8113;SDS011;4099;52.684;9.918;2022-11-28T22:17:32;20.33;;;14.50;;
8113;SDS011;4099;52.684;9.918;2022-11-28T22:22:40;17.87;;;13.00;;
8113;SDS011;4099;52.684;9.918;2022-11-28T22:27:56;21.70;;;14.80;;
8113;SDS011;4099;52.684;9.918;2022-11-28T22:33:04;28.93;;;18.00;;
8113;SDS011;4099;52.684;9.918;2022-11-28T22:38:11;21.50;;;13.73;;
8113;SDS011;4099;52.684;9.918;2022-11-28T22:43:20;19.63;;;13.13;;
8113;SDS011;4099;52.684;9.918;2022-11-28T22:48:27;21.67;;;13.03;;
8113;SDS011;4099;52.684;9.918;2022-11-28T22:53:31;22.10;;;13.40;;
8113;SDS011;4099;52.684;9.918;2022-11-28T22:58:37;20.47;;;13.60;;
8113;SDS011;4099;52.684;9.918;2022-11-28T23:03:41;17.77;;;12.57;;
8113;SDS011;4099;52.684;9.918;2022-11-28T23:08:45;17.97;;;12.77;;
8113;SDS011;4099;52.684;9.918;2022-11-28T23:13:59;18.97;;;13.17;;
8113;SDS011;4099;52.684;9.918;2022-11-28T23:19:17;21.87;;;13.53;;
8113;SDS011;4099;52.684;9.918;2022-11-28T23:24:24;16.60;;;11.77;;
8113;SDS011;4099;52.684;9.918;2022-11-28T23:29:31;19.43;;;13.10;;
8113;SDS011;4099;52.684;9.918;2022-11-28T23:34:38;18.20;;;12.83;;
8113;SDS011;4099;52.684;9.918;2022-11-28T23:39:47;19.10;;;13.20;;
8113;SDS011;4099;52.684;9.918;2022-11-28T23:44:53;19.00;;;12.67;;
8113;SDS011;4099;52.684;9.918;2022-11-28T23:49:57;19.10;;;12.97;;
8113;SDS011;4099;52.684;9.918;2022-11-28T23:55:02;19.97;;;12.90;;
